Hlavní strana
METAR-TAF:

METAR-TAF

Letiště :

Apalachicola, Florida, Spojené státy americké

zeměpisná šířka: 29-43-37N, zeměpisná délka: 085-01-29W, výška: 6 m

Aktuální stav počasí

Zpráva byla vytvořena před 8 minutami, v 10:53 UTC
Jihovýchodní vítr 7 kt
Teplota 24°C
Vlhkost vzduchu 74%
Tlak 1020 hPa
Viditelnost: 16.1 km
Jasno

METAR: KAAF 241053Z AUTO 14007KT 10SM CLR 24/19 A3013 RMK AO2 SLP201 T02440194

Čas: 07:01 (11:01 UTC)


TAF: chybějící

Stav a předpovědi počasí z více než 4 000 letišť (zprávy METAR a TAF).

Červené a žluté tečky na mapě představují dostupné meteorologické stanice.

Když kurzor umístíte na tečku, zobrazí se název stanice.

Pak kliknutím zobrazíte stav a předpověď počasí.

Chcete-li změnit mapu, kliknutím na zelené tlačítko se znaménkem +mapu přiblížíte, kliknutím na zelené tlačítko se znaménkem – mapu oddálíte a kliknutím na zelené šipky přejdete na sousední mapy.


METAR-TAF: